createdAt,value
2018-12-03T00:01:35.017Z,54.77
2018-12-03T00:04:09.836Z,52.57
2018-12-03T00:06:38.843Z,52.17
2018-12-03T00:09:09.815Z,52.23
2018-12-03T00:11:39.080Z,49.63
2018-12-03T00:14:08.395Z,56.63
2018-12-03T00:16:37.756Z,48.07
2018-12-03T00:19:07.004Z,50.97
2018-12-03T00:21:36.102Z,45.80
2018-12-03T00:24:05.709Z,46.07
2018-12-03T00:26:34.815Z,43.70
2018-12-03T00:29:04.293Z,46.07
2018-12-03T00:31:36.269Z,41.93
2018-12-03T00:34:06.042Z,43.80
2018-12-03T00:36:39.489Z,44.90
2018-12-03T00:39:09.385Z,36.97
2018-12-03T00:41:38.792Z,36.70
2018-12-03T00:44:08.142Z,34.83
2018-12-03T00:46:36.945Z,34.53
2018-12-03T00:49:06.622Z,35.70
2018-12-03T00:51:35.597Z,36.58
2018-12-03T00:54:04.544Z,36.30
2018-12-03T00:56:33.170Z,35.27
2018-12-03T00:59:02.120Z,32.57
2018-12-03T01:01:35.313Z,31.63
2018-12-03T01:04:05.671Z,30.53
2018-12-03T01:06:35.068Z,32.90
2018-12-03T01:09:04.524Z,33.90
2018-12-03T01:11:34.172Z,30.23
2018-12-03T01:14:03.062Z,31.90
2018-12-03T01:16:32.388Z,34.57
2018-12-03T01:19:01.572Z,32.27
2018-12-03T01:21:30.271Z,31.67
2018-12-03T01:23:59.932Z,26.67
2018-12-03T01:26:28.868Z,31.00
2018-12-03T01:28:58.558Z,29.07
2018-12-03T01:31:27.170Z,35.87
2018-12-03T01:33:56.091Z,31.53
2018-12-03T01:36:25.061Z,32.07
2018-12-03T01:38:54.359Z,26.77
2018-12-03T01:41:23.262Z,24.77
2018-12-03T01:43:52.392Z,27.00
2018-12-03T01:46:22.465Z,25.30
2018-12-03T01:48:51.769Z,21.83
2018-12-03T01:51:21.072Z,23.87
2018-12-03T01:53:50.091Z,24.90
2018-12-03T01:56:19.395Z,24.03
2018-12-03T01:58:48.817Z,21.60
2018-12-03T02:01:18.619Z,21.70
2018-12-03T02:03:47.856Z,19.48
2018-12-03T02:06:16.512Z,16.70
2018-12-03T02:08:45.815Z,18.63
2018-12-03T02:11:15.052Z,21.77
2018-12-03T02:13:44.326Z,19.10
2018-12-03T02:16:13.423Z,17.47
2018-12-03T02:18:42.324Z,18.73
2018-12-03T02:21:11.760Z,15.20
2018-12-03T02:23:40.660Z,17.37
2018-12-03T02:26:11.497Z,19.27
2018-12-03T02:28:41.261Z,13.87
2018-12-03T02:31:10.169Z,17.03
2018-12-03T02:33:39.308Z,14.03
2018-12-03T02:36:09.290Z,13.43
2018-12-03T02:38:38.105Z,12.90
2018-12-03T02:41:06.924Z,11.50
2018-12-03T02:43:35.952Z,12.70
2018-12-03T02:46:05.181Z,12.40
2018-12-03T02:48:34.152Z,10.40
2018-12-03T02:51:03.800Z,12.60
2018-12-03T02:53:33.100Z,11.53
2018-12-03T02:56:02.293Z,12.57
2018-12-03T02:58:31.736Z,11.80
2018-12-03T03:01:00.813Z,11.80
2018-12-03T03:03:30.043Z,11.07
2018-12-03T03:05:59.339Z,8.63
2018-12-03T03:08:28.788Z,7.60
2018-12-03T03:10:57.860Z,7.80
2018-12-03T03:13:27.180Z,7.67
2018-12-03T03:15:56.019Z,8.00
2018-12-03T03:18:26.086Z,6.60
2018-12-03T03:20:55.143Z,6.93
2018-12-03T03:23:24.340Z,7.47
2018-12-03T03:25:53.338Z,8.10
2018-12-03T03:28:22.321Z,6.67
2018-12-03T03:30:51.433Z,7.03
2018-12-03T03:33:20.538Z,6.23
2018-12-03T03:35:49.412Z,7.67
2018-12-03T03:38:18.333Z,6.43
2018-12-03T03:40:47.937Z,5.50
2018-12-03T03:43:16.900Z,4.57
2018-12-03T03:45:45.937Z,4.90
2018-12-03T03:48:15.252Z,5.63
2018-12-03T03:50:44.233Z,7.77
2018-12-03T03:53:13.586Z,5.63
2018-12-03T03:55:43.033Z,6.00
2018-12-03T03:58:11.432Z,6.47
2018-12-03T04:00:40.532Z,6.20
2018-12-03T04:03:09.632Z,6.10
2018-12-03T04:05:39.146Z,6.10
2018-12-03T04:08:08.342Z,8.47
2018-12-03T04:10:37.445Z,7.03
2018-12-03T04:13:07.191Z,6.97
2018-12-03T04:15:36.336Z,6.33
2018-12-03T04:18:05.768Z,8.57
2018-12-03T04:20:35.045Z,6.67
2018-12-03T04:23:04.140Z,5.43
2018-12-03T04:25:33.474Z,6.43
2018-12-03T04:28:03.548Z,6.97
2018-12-03T04:30:33.319Z,6.90
2018-12-03T04:33:02.615Z,6.17
2018-12-03T04:35:32.334Z,7.27
2018-12-03T04:38:00.996Z,5.77
2018-12-03T04:40:30.325Z,6.77
2018-12-03T04:42:59.791Z,8.60
2018-12-03T04:45:28.802Z,6.87
2018-12-03T04:47:57.640Z,6.83
2018-12-03T04:50:26.218Z,9.43
2018-12-03T04:52:55.422Z,6.23
2018-12-03T04:55:25.960Z,6.97
2018-12-03T04:57:55.484Z,7.50
2018-12-03T05:00:24.764Z,8.07
2018-12-03T05:02:54.436Z,6.57
2018-12-03T05:05:24.321Z,7.43
2018-12-03T05:07:53.288Z,6.20
2018-12-03T05:10:22.921Z,7.40
2018-12-03T05:12:52.644Z,6.67
2018-12-03T05:15:22.021Z,5.63
2018-12-03T05:17:51.149Z,8.97
2018-12-03T05:20:21.888Z,7.00
2018-12-03T05:22:50.737Z,6.40
2018-12-03T05:25:20.445Z,7.43
2018-12-03T05:27:49.362Z,6.90
2018-12-03T05:30:18.753Z,7.57
2018-12-03T05:32:48.640Z,8.70
2018-12-03T05:35:18.755Z,8.87
2018-12-03T05:37:48.755Z,9.20
2018-12-03T05:40:19.780Z,9.23
2018-12-03T05:42:48.463Z,10.73
2018-12-03T05:45:17.156Z,9.70
2018-12-03T05:47:45.742Z,12.47
2018-12-03T05:50:15.064Z,10.47
2018-12-03T05:52:44.332Z,12.23
2018-12-03T05:55:13.549Z,9.27
2018-12-03T05:57:43.029Z,11.40
2018-12-03T06:00:21.377Z,10.67
2018-12-03T06:02:50.624Z,11.80
2018-12-03T06:05:19.674Z,10.13
2018-12-03T06:07:48.700Z,13.22
2018-12-03T06:10:19.272Z,11.60
2018-12-03T06:12:48.264Z,10.97
2018-12-03T06:15:18.528Z,9.17
2018-12-03T06:17:48.009Z,12.30
2018-12-03T06:20:17.628Z,11.43
2018-12-03T06:22:47.645Z,11.10
2018-12-03T06:25:19.028Z,10.53
2018-12-03T06:27:48.397Z,11.67
2018-12-03T06:30:18.487Z,9.43
2018-12-03T06:32:47.384Z,10.60
2018-12-03T06:35:17.187Z,11.43
2018-12-03T06:37:46.570Z,10.43
2018-12-03T06:40:16.488Z,12.60
2018-12-03T06:42:45.872Z,10.83
2018-12-03T06:45:16.780Z,10.30
2018-12-03T06:47:47.300Z,9.60
2018-12-03T06:50:16.264Z,9.67
2018-12-03T06:52:45.501Z,10.90
2018-12-03T06:55:16.192Z,14.30
2018-12-03T06:57:46.041Z,10.07
2018-12-03T07:00:19.037Z,11.50
2018-12-03T07:02:51.489Z,13.57
2018-12-03T07:05:20.659Z,10.47
2018-12-03T07:07:49.900Z,12.87
2018-12-03T07:10:19.503Z,11.53
2018-12-03T07:12:49.708Z,12.70
2018-12-03T07:15:19.369Z,12.03
2018-12-03T07:17:49.345Z,12.37
2018-12-03T07:20:18.261Z,10.83
2018-12-03T07:22:47.280Z,9.43
2018-12-03T07:25:16.179Z,8.50
2018-12-03T07:27:45.351Z,9.53
2018-12-03T07:30:16.202Z,11.60
2018-12-03T07:32:45.756Z,10.57
2018-12-03T07:35:14.891Z,9.80
2018-12-03T07:37:44.311Z,7.53
2018-12-03T07:40:13.108Z,7.87
2018-12-03T07:42:42.944Z,8.43
2018-12-03T07:45:13.632Z,8.30
2018-12-03T07:47:42.881Z,8.97
2018-12-03T07:50:12.978Z,7.90
2018-12-03T07:52:41.887Z,7.93
2018-12-03T07:55:11.796Z,7.13
2018-12-03T07:57:41.506Z,7.77
2018-12-03T08:00:11.467Z,6.73
2018-12-03T08:02:40.321Z,6.37
2018-12-03T08:05:10.137Z,5.60
2018-12-03T08:07:38.826Z,7.53
2018-12-03T08:10:10.315Z,11.03
2018-12-03T08:12:39.660Z,6.83
2018-12-03T08:15:10.633Z,6.67
2018-12-03T08:17:40.273Z,8.37
2018-12-03T08:20:14.355Z,8.00
2018-12-03T08:22:43.600Z,6.40
2018-12-03T08:25:12.554Z,6.03
2018-12-03T08:27:41.551Z,8.80
2018-12-03T08:30:11.776Z,7.20
2018-12-03T08:32:40.566Z,10.83
2018-12-03T08:35:10.692Z,8.00
2018-12-03T08:37:39.897Z,7.07
2018-12-03T08:40:17.403Z,9.40
2018-12-03T08:42:47.086Z,9.77
2018-12-03T08:45:15.790Z,7.83
2018-12-03T08:47:44.953Z,10.20
2018-12-03T08:50:16.548Z,9.23
2018-12-03T08:52:45.776Z,8.47
2018-12-03T08:55:14.952Z,9.67
2018-12-03T08:57:43.855Z,8.67
2018-12-03T09:00:15.815Z,9.30
2018-12-03T09:02:53.511Z,6.70
2018-12-03T09:05:23.620Z,8.00
2018-12-03T09:07:52.730Z,7.23
2018-12-03T09:10:22.116Z,6.83
2018-12-03T09:12:52.059Z,7.23
2018-12-03T09:15:21.017Z,7.87
2018-12-03T09:17:50.360Z,8.13
2018-12-03T09:20:19.971Z,10.90
2018-12-03T09:22:49.044Z,7.10
2018-12-03T09:25:19.704Z,9.87
2018-12-03T09:27:48.395Z,7.67
2018-12-03T09:30:17.168Z,7.37
2018-12-03T09:32:46.624Z,6.57
2018-12-03T09:35:15.831Z,7.03
2018-12-03T09:37:44.899Z,6.60
2018-12-03T09:40:15.664Z,6.53
2018-12-03T09:42:45.313Z,6.40
2018-12-03T09:45:17.928Z,8.13
2018-12-03T09:47:47.924Z,6.63
2018-12-03T09:50:24.701Z,6.87
2018-12-03T09:52:54.136Z,7.27
2018-12-03T09:55:23.514Z,6.30
2018-12-03T09:57:58.235Z,8.10
2018-12-03T10:00:26.854Z,7.93
2018-12-03T10:02:56.140Z,8.77
2018-12-03T10:05:26.212Z,7.30
2018-12-03T10:07:55.517Z,8.43
2018-12-03T10:10:24.658Z,8.90
2018-12-03T10:12:53.377Z,7.83
2018-12-03T10:15:26.909Z,9.08
2018-12-03T10:17:57.000Z,8.90
2018-12-03T10:20:27.036Z,9.80
2018-12-03T10:22:56.416Z,8.30
2018-12-03T10:25:25.325Z,9.90
2018-12-03T10:27:59.516Z,9.47
2018-12-03T10:30:28.896Z,10.60
2018-12-03T10:32:57.988Z,9.40
2018-12-03T10:35:32.535Z,9.03
2018-12-03T10:38:05.754Z,9.50
2018-12-03T10:40:39.432Z,8.77
2018-12-03T10:43:10.107Z,9.90
2018-12-03T10:45:39.176Z,9.23
2018-12-03T10:48:07.789Z,8.40
2018-12-03T10:50:36.994Z,8.50
2018-12-03T10:53:06.507Z,9.30
2018-12-03T10:55:40.005Z,9.13
2018-12-03T10:58:08.795Z,8.87
2018-12-03T11:01:42.773Z,9.13
2018-12-03T11:04:17.273Z,9.80
2018-12-03T11:06:45.988Z,12.40
2018-12-03T11:09:15.398Z,9.20
2018-12-03T11:11:50.839Z,10.23
2018-12-03T11:14:19.939Z,11.07
2018-12-03T11:16:49.544Z,10.33
2018-12-03T11:19:18.854Z,9.70
2018-12-03T11:21:48.520Z,9.63
2018-12-03T11:24:17.060Z,11.67
2018-12-03T11:26:47.156Z,11.97
2018-12-03T11:29:17.744Z,10.47
2018-12-03T11:31:46.809Z,9.37
2018-12-03T11:34:16.319Z,10.23
2018-12-03T11:36:45.932Z,9.50
2018-12-03T11:39:56.489Z,8.97
2018-12-03T11:42:27.646Z,12.10
2018-12-03T11:44:56.313Z,12.20
2018-12-03T11:47:25.172Z,9.90
2018-12-03T11:49:55.473Z,13.47
2018-12-03T11:52:24.540Z,8.90
2018-12-03T11:54:53.534Z,11.10
2018-12-03T11:57:22.917Z,10.70
2018-12-03T11:59:51.902Z,11.97
2018-12-03T12:02:21.126Z,10.47
2018-12-03T12:04:50.513Z,12.30
2018-12-03T12:07:20.316Z,11.17
2018-12-03T12:09:49.572Z,11.67
2018-12-03T12:12:18.706Z,11.03
2018-12-03T12:14:47.661Z,11.77
2018-12-03T12:17:16.759Z,9.40
2018-12-03T12:19:45.756Z,10.50
2018-12-03T12:22:15.348Z,10.27
2018-12-03T12:24:44.978Z,9.40
2018-12-03T12:27:13.824Z,12.03
2018-12-03T12:29:43.177Z,8.60
2018-12-03T12:32:12.416Z,11.40
2018-12-03T12:34:40.801Z,8.68
2018-12-03T12:37:10.247Z,9.67
2018-12-03T12:39:39.128Z,8.73
2018-12-03T12:42:08.269Z,8.80
2018-12-03T12:44:43.410Z,7.17
2018-12-03T12:47:12.413Z,10.37
2018-12-03T12:49:41.506Z,9.17
2018-12-03T12:52:10.499Z,7.53
2018-12-03T12:54:39.875Z,8.87
2018-12-03T12:57:08.864Z,8.27
2018-12-03T12:59:38.232Z,8.40
2018-12-03T13:02:08.506Z,7.83
2018-12-03T13:36:41.811Z,9.38
2018-12-03T13:39:10.910Z,7.77
2018-12-03T13:41:40.661Z,7.90
2018-12-03T13:44:10.151Z,7.23
2018-12-03T13:46:39.407Z,7.47
2018-12-03T13:49:08.833Z,8.83
2018-12-03T13:51:38.252Z,8.17
2018-12-03T13:54:07.273Z,8.90
2018-12-03T13:56:36.223Z,10.23
2018-12-03T13:59:04.737Z,8.30
2018-12-03T14:01:33.708Z,10.25
2018-12-03T14:04:07.741Z,11.40
2018-12-03T14:06:37.764Z,10.60
2018-12-03T14:09:13.588Z,11.57
2018-12-03T14:12:19.836Z,8.00
2018-12-03T14:14:59.101Z,8.77
2018-12-03T14:17:30.760Z,9.27
2018-12-03T14:20:00.629Z,10.50
2018-12-03T14:22:35.196Z,9.30
2018-12-03T14:25:05.010Z,11.03
2018-12-03T14:27:34.259Z,9.37
2018-12-03T14:30:03.414Z,8.47
2018-12-03T14:32:32.314Z,10.30
2018-12-03T14:35:01.782Z,7.93
2018-12-03T14:37:30.714Z,10.83
2018-12-03T14:39:59.661Z,8.70
2018-12-03T14:42:28.527Z,11.60
2018-12-03T14:44:57.860Z,11.07
2018-12-03T14:47:26.397Z,9.33
2018-12-03T14:49:55.527Z,8.00
2018-12-03T14:52:24.838Z,8.57
2018-12-03T14:54:53.906Z,8.57
2018-12-03T14:57:23.490Z,7.67
2018-12-03T14:59:52.650Z,9.23
2018-12-03T15:02:21.744Z,10.37
2018-12-03T15:04:50.980Z,6.93
2018-12-03T15:07:19.980Z,8.27
2018-12-03T15:09:50.305Z,6.77
2018-12-03T15:12:19.669Z,7.90
2018-12-03T15:14:48.688Z,9.23
2018-12-03T15:17:17.811Z,8.13
2018-12-03T15:19:47.060Z,10.17
2018-12-03T15:22:17.063Z,8.07
2018-12-03T15:24:46.067Z,9.57
2018-12-03T15:27:14.860Z,11.10
2018-12-03T15:29:44.266Z,5.53
2018-12-03T15:32:13.540Z,5.25
2018-12-03T15:34:42.569Z,6.03
2018-12-03T15:37:12.239Z,8.13
2018-12-03T15:39:41.637Z,6.57
2018-12-03T15:42:10.687Z,7.78
2018-12-03T15:44:41.228Z,7.17
2018-12-03T15:47:12.808Z,6.10
2018-12-03T15:49:41.908Z,8.07
2018-12-03T15:52:11.213Z,5.67
2018-12-03T15:54:40.439Z,8.07
2018-12-03T15:57:09.728Z,5.40
2018-12-03T15:59:38.583Z,7.57
2018-12-03T16:02:07.983Z,6.93
2018-12-03T16:04:37.062Z,6.05
2018-12-03T16:07:05.985Z,5.83
2018-12-03T16:09:35.390Z,5.70
2018-12-03T16:12:04.935Z,4.93
2018-12-03T16:14:35.136Z,4.30
2018-12-03T16:17:04.352Z,5.23
2018-12-03T16:19:33.738Z,4.47
2018-12-03T16:22:02.732Z,6.40
2018-12-03T16:24:31.627Z,4.33
2018-12-03T16:27:00.766Z,4.70
2018-12-03T16:29:30.012Z,3.93
2018-12-03T16:31:58.413Z,3.80
2018-12-03T16:34:27.412Z,4.40
2018-12-03T16:36:56.374Z,3.57
2018-12-03T16:39:26.123Z,4.10
2018-12-03T16:41:55.394Z,6.03
2018-12-03T16:44:28.722Z,4.33
2018-12-03T16:46:58.068Z,4.83
2018-12-03T16:49:32.038Z,4.63
2018-12-03T16:52:01.285Z,4.23
2018-12-03T16:54:30.580Z,4.00
2018-12-03T16:57:00.552Z,4.23
2018-12-03T16:59:29.232Z,4.77
2018-12-03T17:01:58.565Z,4.70
2018-12-03T17:04:28.324Z,3.80
2018-12-03T17:06:57.384Z,5.57
2018-12-03T17:09:26.374Z,4.00
2018-12-03T17:11:55.576Z,3.58
2018-12-03T17:14:24.899Z,3.87
2018-12-03T17:16:54.085Z,3.87
2018-12-03T17:19:23.081Z,4.10
2018-12-03T17:22:13.424Z,4.17
2018-12-03T17:24:43.472Z,4.00
2018-12-03T17:27:12.981Z,3.80
2018-12-03T17:29:42.503Z,4.63
2018-12-03T17:32:11.614Z,4.63
2018-12-03T17:34:41.767Z,4.03
2018-12-03T17:37:11.084Z,4.00
2018-12-03T17:39:40.337Z,5.13
2018-12-03T17:42:09.539Z,2.87
2018-12-03T17:44:39.300Z,3.20
2018-12-03T17:47:08.341Z,2.90
2018-12-03T17:49:38.756Z,2.75
2018-12-03T17:52:07.574Z,2.53
2018-12-03T17:54:37.520Z,2.33
2018-12-03T17:57:08.339Z,2.30
2018-12-03T17:59:37.127Z,2.40
2018-12-03T18:02:06.432Z,2.17
2018-12-03T18:04:35.116Z,2.47
2018-12-03T18:07:05.142Z,1.70
2018-12-03T18:09:34.047Z,3.20
2018-12-03T18:12:02.932Z,1.53
2018-12-03T18:14:32.852Z,1.40
2018-12-03T18:17:01.860Z,1.40
2018-12-03T18:19:31.074Z,1.23
2018-12-03T18:22:00.492Z,1.40
2018-12-03T18:24:29.800Z,1.20
2018-12-03T18:26:58.980Z,1.30
2018-12-03T18:29:29.587Z,1.30
2018-12-03T18:31:59.006Z,1.40
2018-12-03T18:34:28.644Z,1.23
2018-12-03T18:36:57.719Z,1.50
2018-12-03T18:39:26.717Z,1.50
2018-12-03T18:41:55.926Z,2.13
2018-12-03T18:44:24.749Z,2.17
2018-12-03T18:46:53.913Z,1.77
2018-12-03T18:49:28.334Z,3.30
2018-12-03T18:52:01.089Z,1.97
2018-12-03T18:54:30.183Z,1.63
2018-12-03T18:56:59.584Z,1.85
2018-12-03T18:59:29.009Z,2.55
2018-12-03T19:01:58.171Z,2.50
2018-12-03T19:04:27.623Z,2.30
2018-12-03T19:06:56.433Z,2.10
2018-12-03T19:09:25.660Z,2.00
2018-12-03T19:11:54.632Z,2.03
2018-12-03T19:14:23.333Z,2.53
2018-12-03T19:16:52.834Z,2.00
2018-12-03T19:19:21.318Z,2.10
2018-12-03T19:21:50.571Z,2.30
2018-12-03T19:24:19.517Z,1.93
2018-12-03T19:26:49.027Z,2.50
2018-12-03T19:29:18.363Z,2.60
2018-12-03T19:31:47.430Z,4.60
2018-12-03T19:34:16.912Z,3.10
2018-12-03T19:36:46.327Z,7.53
2018-12-03T19:39:16.888Z,5.23
2018-12-03T19:42:30.258Z,4.97
2018-12-03T19:44:59.316Z,9.60
2018-12-03T19:47:28.460Z,10.70
2018-12-03T19:49:57.077Z,16.30
2018-12-03T19:52:25.577Z,26.67
2018-12-03T19:54:55.275Z,33.13
2018-12-03T19:57:26.429Z,16.20
2018-12-03T20:00:00.847Z,13.30
2018-12-03T20:02:29.150Z,9.87
2018-12-03T20:05:00.073Z,6.73
2018-12-03T20:07:30.312Z,6.30
2018-12-03T20:10:00.503Z,6.23
2018-12-03T20:12:29.656Z,5.70
2018-12-03T20:14:58.705Z,4.60
2018-12-03T20:17:31.193Z,4.63
2018-12-03T20:20:00.398Z,4.97
2018-12-03T20:22:33.793Z,5.67
2018-12-03T20:25:02.486Z,4.23
2018-12-03T20:27:35.278Z,3.77
2018-12-03T20:30:16.753Z,3.23
2018-12-03T20:32:53.985Z,3.63
2018-12-03T20:35:26.745Z,3.33
2018-12-03T20:38:06.177Z,2.80
2018-12-03T20:40:40.680Z,3.80
2018-12-03T20:43:18.219Z,2.47
2018-12-03T20:45:52.693Z,2.80
2018-12-03T20:48:29.366Z,3.17
2018-12-03T20:51:02.688Z,2.90
2018-12-03T20:53:47.335Z,2.83
2018-12-03T20:56:16.573Z,4.20
2018-12-03T20:58:46.337Z,3.17
2018-12-03T21:01:15.712Z,4.77
2018-12-03T21:03:45.046Z,3.47
2018-12-03T21:06:13.981Z,3.63
2018-12-03T21:08:46.781Z,4.27
2018-12-03T21:11:15.924Z,4.43
2018-12-03T21:13:45.099Z,3.50
2018-12-03T21:16:14.280Z,4.73
2018-12-03T21:18:43.816Z,4.80
2018-12-03T21:21:13.064Z,3.50
2018-12-03T21:23:42.452Z,5.47
2018-12-03T21:26:12.673Z,3.30
2018-12-03T21:28:42.696Z,5.20
2018-12-03T21:31:11.282Z,5.90
2018-12-03T21:33:40.586Z,8.13
2018-12-03T21:36:09.468Z,6.77
2018-12-03T21:38:38.528Z,5.47
2018-12-03T21:41:07.968Z,10.23
2018-12-03T21:43:36.783Z,3.73
2018-12-03T21:46:06.087Z,6.37
2018-12-03T21:48:36.178Z,5.87
2018-12-03T21:51:05.849Z,6.47
2018-12-03T21:53:35.236Z,5.77
2018-12-03T21:56:03.852Z,4.67
2018-12-03T21:58:33.326Z,5.23
2018-12-03T22:01:03.564Z,5.23
2018-12-03T22:03:32.858Z,6.47
2018-12-03T22:06:02.637Z,5.20
2018-12-03T22:08:31.631Z,4.30
2018-12-03T22:11:00.654Z,4.40
2018-12-03T22:13:33.258Z,5.20
2018-12-03T22:16:03.308Z,4.00
2018-12-03T22:18:32.471Z,5.77
2018-12-03T22:21:02.063Z,4.83
2018-12-03T22:23:32.112Z,4.67
2018-12-03T22:26:01.714Z,4.87
2018-12-03T22:28:31.152Z,5.23
2018-12-03T22:31:00.836Z,3.77
2018-12-03T22:33:29.840Z,4.40
2018-12-03T22:36:00.482Z,4.50
2018-12-03T22:38:29.619Z,4.33
2018-12-03T22:40:59.400Z,5.17
2018-12-03T22:43:28.584Z,3.53
2018-12-03T22:45:57.582Z,6.03
2018-12-03T22:48:26.785Z,3.87
2018-12-03T22:50:55.985Z,5.00
2018-12-03T22:53:25.327Z,5.60
2018-12-03T22:55:54.325Z,6.70
2018-12-03T22:58:23.902Z,4.47
2018-12-03T23:01:01.617Z,3.40
2018-12-03T23:03:30.491Z,5.33
2018-12-03T23:06:00.224Z,3.77
2018-12-03T23:08:30.807Z,3.47
2018-12-03T23:11:00.016Z,3.93
2018-12-03T23:13:35.385Z,3.87
2018-12-03T23:16:05.076Z,4.90
2018-12-03T23:18:33.893Z,5.17
2018-12-03T23:21:03.152Z,4.20
2018-12-03T23:23:32.896Z,4.80
2018-12-03T23:26:02.111Z,3.37
2018-12-03T23:28:31.827Z,4.83
2018-12-03T23:31:00.830Z,4.87
2018-12-03T23:33:29.971Z,4.57
2018-12-03T23:36:00.555Z,4.60
2018-12-03T23:38:30.104Z,3.80
2018-12-03T23:40:59.857Z,3.37
2018-12-03T23:43:29.287Z,3.93
2018-12-03T23:45:58.657Z,5.47
2018-12-03T23:48:27.765Z,7.47
2018-12-03T23:50:56.705Z,5.10
2018-12-03T23:53:26.284Z,5.60
2018-12-03T23:55:55.636Z,4.50
2018-12-03T23:58:25.309Z,6.00
